sensor_id;sensor_type;location;lat;lon;timestamp;pressure;altitude;pressure_sealevel;temperature;humidity
51829;BME280;37881;48.024;8.774;2023-04-25T00:01:44;93319.59;;;5.65;100.00
51829;BME280;37881;48.024;8.774;2023-04-25T00:04:31;93316.56;;;5.52;100.00
51829;BME280;37881;48.024;8.774;2023-04-25T00:07:20;93315.25;;;5.71;100.00
51829;BME280;37881;48.024;8.774;2023-04-25T00:10:08;93308.31;;;5.66;100.00
51829;BME280;37881;48.024;8.774;2023-04-25T00:12:55;93306.44;;;5.52;100.00
51829;BME280;37881;48.024;8.774;2023-04-25T00:15:42;93304.38;;;5.71;100.00
51829;BME280;37881;48.024;8.774;2023-04-25T00:18:29;93305.56;;;5.70;100.00
51829;BME280;37881;48.024;8.774;2023-04-25T00:21:16;93303.16;;;5.75;100.00
51829;BME280;37881;48.024;8.774;2023-04-25T00:24:04;93305.13;;;5.75;100.00
51829;BME280;37881;48.024;8.774;2023-04-25T00:26:51;93295.72;;;5.87;100.00
51829;BME280;37881;48.024;8.774;2023-04-25T00:29:41;93289.44;;;5.97;100.00
51829;BME280;37881;48.024;8.774;2023-04-25T00:32:28;93280.84;;;6.02;100.00
51829;BME280;37881;48.024;8.774;2023-04-25T00:35:15;93285.88;;;6.04;100.00
51829;BME280;37881;48.024;8.774;2023-04-25T00:38:02;93264.53;;;5.91;100.00
51829;BME280;37881;48.024;8.774;2023-04-25T00:40:49;93271.28;;;5.79;100.00
51829;BME280;37881;48.024;8.774;2023-04-25T00:43:36;93275.66;;;5.59;100.00
51829;BME280;37881;48.024;8.774;2023-04-25T00:46:23;93281.59;;;5.47;100.00
51829;BME280;37881;48.024;8.774;2023-04-25T00:49:10;93279.22;;;5.56;100.00
51829;BME280;37881;48.024;8.774;2023-04-25T00:52:02;93277.66;;;5.55;100.00
51829;BME280;37881;48.024;8.774;2023-04-25T00:54:49;93272.66;;;5.46;100.00
51829;BME280;37881;48.024;8.774;2023-04-25T00:57:36;93286.00;;;5.23;100.00
51829;BME280;37881;48.024;8.774;2023-04-25T01:00:23;93285.28;;;5.11;100.00
51829;BME280;37881;48.024;8.774;2023-04-25T01:03:10;93281.84;;;4.93;100.00
51829;BME280;37881;48.024;8.774;2023-04-25T01:05:57;93276.09;;;4.76;100.00
51829;BME280;37881;48.024;8.774;2023-04-25T01:08:44;93279.94;;;4.86;100.00
51829;BME280;37881;48.024;8.774;2023-04-25T01:11:31;93283.03;;;4.92;100.00
51829;BME280;37881;48.024;8.774;2023-04-25T01:14:18;93286.50;;;5.03;100.00
51829;BME280;37881;48.024;8.774;2023-04-25T01:17:05;93280.25;;;5.10;100.00
51829;BME280;37881;48.024;8.774;2023-04-25T01:19:54;93282.13;;;5.20;100.00
51829;BME280;37881;48.024;8.774;2023-04-25T01:22:42;93297.69;;;5.19;100.00
51829;BME280;37881;48.024;8.774;2023-04-25T01:25:33;93309.72;;;5.15;100.00
51829;BME280;37881;48.024;8.774;2023-04-25T01:28:20;93307.84;;;5.05;100.00
51829;BME280;37881;48.024;8.774;2023-04-25T01:31:07;93316.44;;;4.96;100.00
51829;BME280;37881;48.024;8.774;2023-04-25T01:33:55;93306.44;;;4.68;100.00
51829;BME280;37881;48.024;8.774;2023-04-25T01:36:42;93303.38;;;4.48;100.00
51829;BME280;37881;48.024;8.774;2023-04-25T01:39:29;93289.03;;;4.33;100.00
51829;BME280;37881;48.024;8.774;2023-04-25T01:42:16;93302.22;;;4.34;100.00
51829;BME280;37881;48.024;8.774;2023-04-25T01:45:03;93308.84;;;4.37;100.00
51829;BME280;37881;48.024;8.774;2023-04-25T01:47:50;93300.66;;;4.55;100.00
51829;BME280;37881;48.024;8.774;2023-04-25T01:50:38;93305.63;;;4.74;100.00
51829;BME280;37881;48.024;8.774;2023-04-25T01:53:25;93287.41;;;4.71;100.00
51829;BME280;37881;48.024;8.774;2023-04-25T01:56:12;93282.34;;;4.66;100.00
51829;BME280;37881;48.024;8.774;2023-04-25T01:58:59;93279.19;;;4.86;100.00
51829;BME280;37881;48.024;8.774;2023-04-25T02:01:46;93267.88;;;4.94;100.00
51829;BME280;37881;48.024;8.774;2023-04-25T02:04:33;93261.69;;;4.90;100.00
51829;BME280;37881;48.024;8.774;2023-04-25T02:07:20;93255.09;;;4.84;100.00
51829;BME280;37881;48.024;8.774;2023-04-25T02:10:07;93247.75;;;4.77;100.00
51829;BME280;37881;48.024;8.774;2023-04-25T02:12:54;93256.69;;;4.74;100.00
51829;BME280;37881;48.024;8.774;2023-04-25T02:15:41;93254.41;;;4.66;100.00
51829;BME280;37881;48.024;8.774;2023-04-25T02:18:28;93248.22;;;4.54;100.00
51829;BME280;37881;48.024;8.774;2023-04-25T02:21:15;93254.06;;;4.46;100.00
51829;BME280;37881;48.024;8.774;2023-04-25T02:24:02;93249.41;;;4.50;100.00
51829;BME280;37881;48.024;8.774;2023-04-25T02:26:49;93245.94;;;4.42;100.00
51829;BME280;37881;48.024;8.774;2023-04-25T02:29:37;93252.94;;;4.32;100.00
51829;BME280;37881;48.024;8.774;2023-04-25T02:32:23;93249.06;;;4.30;100.00
51829;BME280;37881;48.024;8.774;2023-04-25T02:35:10;93244.81;;;4.29;100.00
51829;BME280;37881;48.024;8.774;2023-04-25T02:37:57;93243.63;;;4.33;100.00
51829;BME280;37881;48.024;8.774;2023-04-25T02:40:44;93237.03;;;4.34;100.00
51829;BME280;37881;48.024;8.774;2023-04-25T02:43:31;93239.34;;;4.36;100.00
51829;BME280;37881;48.024;8.774;2023-04-25T02:46:18;93241.31;;;4.32;100.00
51829;BME280;37881;48.024;8.774;2023-04-25T02:49:23;93237.03;;;4.38;100.00
51829;BME280;37881;48.024;8.774;2023-04-25T02:52:10;93226.13;;;4.49;100.00
51829;BME280;37881;48.024;8.774;2023-04-25T02:54:58;93230.00;;;4.48;100.00
51829;BME280;37881;48.024;8.774;2023-04-25T02:57:44;93233.88;;;4.50;100.00
51829;BME280;37881;48.024;8.774;2023-04-25T03:00:31;93235.06;;;4.46;100.00
51829;BME280;37881;48.024;8.774;2023-04-25T03:03:18;93224.94;;;4.53;100.00
51829;BME280;37881;48.024;8.774;2023-04-25T03:06:08;93231.63;;;4.31;100.00
51829;BME280;37881;48.024;8.774;2023-04-25T03:08:55;93235.09;;;4.24;100.00
51829;BME280;37881;48.024;8.774;2023-04-25T03:11:43;93241.34;;;4.10;100.00
51829;BME280;37881;48.024;8.774;2023-04-25T03:14:30;93239.44;;;4.07;100.00
51829;BME280;37881;48.024;8.774;2023-04-25T03:17:17;93237.88;;;4.03;100.00
51829;BME280;37881;48.024;8.774;2023-04-25T03:20:04;93237.91;;;3.49;100.00
51829;BME280;37881;48.024;8.774;2023-04-25T03:22:51;93234.44;;;3.48;100.00
51829;BME280;37881;48.024;8.774;2023-04-25T03:25:38;93241.00;;;3.44;100.00
51829;BME280;37881;48.024;8.774;2023-04-25T03:28:25;93241.78;;;3.40;100.00
51829;BME280;37881;48.024;8.774;2023-04-25T03:31:12;93233.63;;;3.37;100.00
51829;BME280;37881;48.024;8.774;2023-04-25T03:33:59;93229.38;;;3.43;100.00
51829;BME280;37881;48.024;8.774;2023-04-25T03:36:45;93234.78;;;3.29;100.00
51829;BME280;37881;48.024;8.774;2023-04-25T03:39:32;93224.72;;;3.22;100.00
51829;BME280;37881;48.024;8.774;2023-04-25T03:42:19;93236.31;;;3.15;100.00
51829;BME280;37881;48.024;8.774;2023-04-25T03:45:07;93234.41;;;3.16;100.00
51829;BME280;37881;48.024;8.774;2023-04-25T03:47:54;93224.69;;;3.04;100.00
51829;BME280;37881;48.024;8.774;2023-04-25T03:50:40;93234.38;;;3.09;100.00
51829;BME280;37881;48.024;8.774;2023-04-25T03:53:27;93228.56;;;3.07;100.00
51829;BME280;37881;48.024;8.774;2023-04-25T03:56:14;93233.59;;;3.05;100.00
51829;BME280;37881;48.024;8.774;2023-04-25T03:59:01;93228.53;;;2.99;100.00
51829;BME280;37881;48.024;8.774;2023-04-25T04:01:48;93225.84;;;2.96;100.00
51829;BME280;37881;48.024;8.774;2023-04-25T04:04:35;93229.31;;;2.96;100.00
51829;BME280;37881;48.024;8.774;2023-04-25T04:07:22;93217.69;;;2.96;100.00
51829;BME280;37881;48.024;8.774;2023-04-25T04:10:10;93216.94;;;3.03;100.00
51829;BME280;37881;48.024;8.774;2023-04-25T04:12:57;93235.13;;;3.09;100.00
51829;BME280;37881;48.024;8.774;2023-04-25T04:15:44;93236.28;;;3.01;100.00
51829;BME280;37881;48.024;8.774;2023-04-25T04:18:31;93232.44;;;3.09;100.00
51829;BME280;37881;48.024;8.774;2023-04-25T04:21:17;93230.50;;;3.03;100.00
51829;BME280;37881;48.024;8.774;2023-04-25T04:24:04;93223.94;;;3.18;100.00
51829;BME280;37881;48.024;8.774;2023-04-25T04:26:52;93228.56;;;3.21;100.00
51829;BME280;37881;48.024;8.774;2023-04-25T04:29:39;93220.44;;;3.32;100.00
51829;BME280;37881;48.024;8.774;2023-04-25T04:32:26;93222.41;;;3.38;100.00
51829;BME280;37881;48.024;8.774;2023-04-25T04:35:14;93223.19;;;3.53;100.00
51829;BME280;37881;48.024;8.774;2023-04-25T04:38:01;93221.63;;;3.52;100.00
51829;BME280;37881;48.024;8.774;2023-04-25T04:40:47;93212.31;;;3.53;100.00
51829;BME280;37881;48.024;8.774;2023-04-25T04:43:34;93204.19;;;3.60;100.00
51829;BME280;37881;48.024;8.774;2023-04-25T04:46:21;93212.31;;;3.25;100.00
51829;BME280;37881;48.024;8.774;2023-04-25T04:49:09;93213.09;;;3.29;100.00
51829;BME280;37881;48.024;8.774;2023-04-25T04:51:57;93212.72;;;3.27;100.00
51829;BME280;37881;48.024;8.774;2023-04-25T04:54:45;93217.72;;;3.21;100.00
51829;BME280;37881;48.024;8.774;2023-04-25T04:57:32;93220.84;;;3.23;100.00
51829;BME280;37881;48.024;8.774;2023-04-25T05:00:19;93227.03;;;3.20;100.00
51829;BME280;37881;48.024;8.774;2023-04-25T05:03:07;93223.16;;;3.10;100.00
51829;BME280;37881;48.024;8.774;2023-04-25T05:05:54;93221.22;;;3.36;100.00
51829;BME280;37881;48.024;8.774;2023-04-25T05:08:41;93214.66;;;3.48;100.00
51829;BME280;37881;48.024;8.774;2023-04-25T05:11:28;93215.81;;;3.43;100.00
51829;BME280;37881;48.024;8.774;2023-04-25T05:14:15;93224.34;;;3.63;100.00
51829;BME280;37881;48.024;8.774;2023-04-25T05:17:03;93220.84;;;3.77;100.00
51829;BME280;37881;48.024;8.774;2023-04-25T05:19:53;93219.69;;;3.85;100.00
51829;BME280;37881;48.024;8.774;2023-04-25T05:22:39;93211.94;;;3.73;100.00
51829;BME280;37881;48.024;8.774;2023-04-25T05:25:28;93215.41;;;3.73;100.00
51829;BME280;37881;48.024;8.774;2023-04-25T05:28:15;93212.31;;;3.53;100.00
51829;BME280;37881;48.024;8.774;2023-04-25T05:31:02;93213.88;;;3.58;100.00
51829;BME280;37881;48.024;8.774;2023-04-25T05:33:49;93218.53;;;3.68;100.00
51829;BME280;37881;48.024;8.774;2023-04-25T05:36:36;93219.28;;;3.87;100.00
51829;BME280;37881;48.024;8.774;2023-04-25T05:39:23;93222.00;;;3.87;100.00
51829;BME280;37881;48.024;8.774;2023-04-25T05:42:10;93228.22;;;3.94;100.00
51829;BME280;37881;48.024;8.774;2023-04-25T05:44:57;93225.44;;;4.12;100.00
51829;BME280;37881;48.024;8.774;2023-04-25T05:47:44;93224.19;;;4.49;100.00
51829;BME280;37881;48.024;8.774;2023-04-25T05:50:31;93223.81;;;4.36;100.00
51829;BME280;37881;48.024;8.774;2023-04-25T05:53:19;93223.81;;;4.47;100.00
51829;BME280;37881;48.024;8.774;2023-04-25T05:56:05;93227.25;;;4.58;100.00
51829;BME280;37881;48.024;8.774;2023-04-25T05:58:52;93220.94;;;4.83;100.00
51829;BME280;37881;48.024;8.774;2023-04-25T06:01:39;93213.44;;;5.05;100.00
51829;BME280;37881;48.024;8.774;2023-04-25T06:04:26;93203.81;;;5.49;100.00
51829;BME280;37881;48.024;8.774;2023-04-25T06:07:14;93209.03;;;5.82;100.00
51829;BME280;37881;48.024;8.774;2023-04-25T06:10:01;93210.78;;;6.03;100.00
51829;BME280;37881;48.024;8.774;2023-04-25T06:12:48;93215.38;;;6.09;100.00
51829;BME280;37881;48.024;8.774;2023-04-25T06:15:44;93214.50;;;6.19;100.00
51829;BME280;37881;48.024;8.774;2023-04-25T06:18:31;93213.16;;;5.93;100.00
51829;BME280;37881;48.024;8.774;2023-04-25T06:21:17;93218.31;;;5.84;100.00
51829;BME280;37881;48.024;8.774;2023-04-25T06:24:05;93219.00;;;5.47;100.00
51829;BME280;37881;48.024;8.774;2023-04-25T06:26:52;93220.22;;;5.38;100.00
51829;BME280;37881;48.024;8.774;2023-04-25T06:29:39;93219.44;;;5.42;100.00
51829;BME280;37881;48.024;8.774;2023-04-25T06:32:26;93219.97;;;5.15;100.00
51829;BME280;37881;48.024;8.774;2023-04-25T06:35:14;93218.06;;;5.15;100.00
51829;BME280;37881;48.024;8.774;2023-04-25T06:38:02;93219.59;;;5.16;100.00
51829;BME280;37881;48.024;8.774;2023-04-25T06:40:48;93206.22;;;5.44;100.00
51829;BME280;37881;48.024;8.774;2023-04-25T06:43:35;93210.31;;;5.63;100.00
51829;BME280;37881;48.024;8.774;2023-04-25T06:46:22;93210.59;;;5.75;100.00
51829;BME280;37881;48.024;8.774;2023-04-25T06:49:09;93208.38;;;5.63;100.00
51829;BME280;37881;48.024;8.774;2023-04-25T06:51:56;93209.41;;;5.80;100.00
51829;BME280;37881;48.024;8.774;2023-04-25T06:54:44;93205.09;;;5.83;100.00
51829;BME280;37881;48.024;8.774;2023-04-25T06:57:31;93204.69;;;5.88;100.00
51829;BME280;37881;48.024;8.774;2023-04-25T07:00:18;93205.41;;;5.95;100.00
51829;BME280;37881;48.024;8.774;2023-04-25T07:03:05;93208.97;;;5.85;100.00
51829;BME280;37881;48.024;8.774;2023-04-25T07:05:52;93208.72;;;5.69;100.00
51829;BME280;37881;48.024;8.774;2023-04-25T07:08:39;93199.38;;;5.70;100.00
51829;BME280;37881;48.024;8.774;2023-04-25T07:11:26;93213.66;;;5.81;100.00
51829;BME280;37881;48.024;8.774;2023-04-25T07:14:12;93214.38;;;5.89;100.00
51829;BME280;37881;48.024;8.774;2023-04-25T07:16:59;93217.50;;;5.87;100.00
51829;BME280;37881;48.024;8.774;2023-04-25T07:19:46;93215.63;;;5.80;100.00
51829;BME280;37881;48.024;8.774;2023-04-25T07:22:33;93223.44;;;5.78;100.00
51829;BME280;37881;48.024;8.774;2023-04-25T07:25:20;93225.25;;;5.92;100.00
51829;BME280;37881;48.024;8.774;2023-04-25T07:28:07;93217.59;;;5.76;100.00
51829;BME280;37881;48.024;8.774;2023-04-25T07:30:54;93224.94;;;5.31;100.00
51829;BME280;37881;48.024;8.774;2023-04-25T07:33:41;93237.28;;;5.46;100.00
51829;BME280;37881;48.024;8.774;2023-04-25T07:36:28;93237.66;;;5.48;100.00
51829;BME280;37881;48.024;8.774;2023-04-25T07:39:14;93242.19;;;5.03;100.00
51829;BME280;37881;48.024;8.774;2023-04-25T07:42:01;93250.50;;;4.70;100.00
51829;BME280;37881;48.024;8.774;2023-04-25T07:44:48;93253.22;;;4.67;100.00
51829;BME280;37881;48.024;8.774;2023-04-25T07:47:35;93252.88;;;4.61;100.00
51829;BME280;37881;48.024;8.774;2023-04-25T07:50:23;93256.44;;;4.33;100.00
51829;BME280;37881;48.024;8.774;2023-04-25T07:53:10;93258.31;;;4.50;100.00
51829;BME280;37881;48.024;8.774;2023-04-25T07:55:56;93259.81;;;4.73;100.00
51829;BME280;37881;48.024;8.774;2023-04-25T07:58:43;93273.44;;;4.58;100.00
51829;BME280;37881;48.024;8.774;2023-04-25T08:01:30;93273.06;;;4.64;100.00
51829;BME280;37881;48.024;8.774;2023-04-25T08:04:17;93274.56;;;4.75;100.00
51829;BME280;37881;48.024;8.774;2023-04-25T08:07:04;93285.16;;;4.41;100.00
51829;BME280;37881;48.024;8.774;2023-04-25T08:09:53;93293.31;;;4.19;100.00
51829;BME280;37881;48.024;8.774;2023-04-25T08:12:40;93302.66;;;4.15;100.00
51829;BME280;37881;48.024;8.774;2023-04-25T08:15:27;93297.97;;;3.62;100.00
51829;BME280;37881;48.024;8.774;2023-04-25T08:18:14;93312.28;;;3.48;100.00
51829;BME280;37881;48.024;8.774;2023-04-25T08:21:03;93317.75;;;3.44;100.00
51829;BME280;37881;48.024;8.774;2023-04-25T08:23:50;93318.50;;;3.45;100.00
51829;BME280;37881;48.024;8.774;2023-04-25T08:26:37;93315.44;;;3.68;100.00
51829;BME280;37881;48.024;8.774;2023-04-25T08:29:25;93330.97;;;3.89;100.00
51829;BME280;37881;48.024;8.774;2023-04-25T08:32:12;93320.47;;;4.16;100.00
51829;BME280;37881;48.024;8.774;2023-04-25T08:34:59;93320.06;;;4.43;100.00
51829;BME280;37881;48.024;8.774;2023-04-25T08:37:46;93326.22;;;4.65;100.00
51829;BME280;37881;48.024;8.774;2023-04-25T08:40:37;93327.75;;;4.84;100.00
51829;BME280;37881;48.024;8.774;2023-04-25T08:43:25;93334.38;;;4.79;100.00
51829;BME280;37881;48.024;8.774;2023-04-25T08:46:12;93333.59;;;4.71;100.00
51829;BME280;37881;48.024;8.774;2023-04-25T08:49:01;93345.63;;;4.81;100.00
51829;BME280;37881;48.024;8.774;2023-04-25T08:51:49;93352.28;;;4.48;100.00
51829;BME280;37881;48.024;8.774;2023-04-25T08:54:41;93352.91;;;5.02;100.00
51829;BME280;37881;48.024;8.774;2023-04-25T08:57:31;93362.47;;;5.39;100.00
51829;BME280;37881;48.024;8.774;2023-04-25T09:00:18;93364.72;;;4.24;100.00
51829;BME280;37881;48.024;8.774;2023-04-25T09:03:05;93374.75;;;4.77;100.00
51829;BME280;37881;48.024;8.774;2023-04-25T09:05:53;93376.16;;;5.25;100.00
51829;BME280;37881;48.024;8.774;2023-04-25T09:08:41;93377.91;;;3.96;100.00
51829;BME280;37881;48.024;8.774;2023-04-25T09:11:28;93389.41;;;3.43;100.00
51829;BME280;37881;48.024;8.774;2023-04-25T09:14:19;93394.84;;;3.47;100.00
51829;BME280;37881;48.024;8.774;2023-04-25T09:17:11;93389.13;;;4.02;100.00
51829;BME280;37881;48.024;8.774;2023-04-25T09:20:09;93401.75;;;3.26;100.00
51829;BME280;37881;48.024;8.774;2023-04-25T09:23:05;93392.19;;;3.72;100.00
51829;BME280;37881;48.024;8.774;2023-04-25T09:25:53;93401.56;;;4.35;100.00
51829;BME280;37881;48.024;8.774;2023-04-25T09:28:40;93410.38;;;5.18;100.00
51829;BME280;37881;48.024;8.774;2023-04-25T09:31:29;93400.41;;;5.78;100.00
51829;BME280;37881;48.024;8.774;2023-04-25T09:34:19;93395.00;;;6.34;100.00
51829;BME280;37881;48.024;8.774;2023-04-25T09:37:08;93393.22;;;7.38;100.00
51829;BME280;37881;48.024;8.774;2023-04-25T09:39:57;93397.34;;;8.89;100.00
51829;BME280;37881;48.024;8.774;2023-04-25T09:42:46;93399.78;;;8.60;100.00
51829;BME280;37881;48.024;8.774;2023-04-25T09:45:40;93413.16;;;8.54;100.00
51829;BME280;37881;48.024;8.774;2023-04-25T09:48:29;93411.75;;;8.93;100.00
51829;BME280;37881;48.024;8.774;2023-04-25T09:51:16;93411.03;;;8.89;100.00
51829;BME280;37881;48.024;8.774;2023-04-25T09:54:03;93417.81;;;8.81;100.00
51829;BME280;37881;48.024;8.774;2023-04-25T09:56:53;93411.56;;;8.80;100.00
51829;BME280;37881;48.024;8.774;2023-04-25T09:59:52;93416.50;;;10.13;100.00
51829;BME280;37881;48.024;8.774;2023-04-25T10:02:42;93422.66;;;8.19;100.00
51829;BME280;37881;48.024;8.774;2023-04-25T10:05:34;93420.31;;;9.59;100.00
51829;BME280;37881;48.024;8.774;2023-04-25T10:08:22;93420.78;;;8.12;100.00
51829;BME280;37881;48.024;8.774;2023-04-25T10:11:10;93416.97;;;8.60;100.00
51829;BME280;37881;48.024;8.774;2023-04-25T10:13:57;93413.16;;;9.85;100.00
51829;BME280;37881;48.024;8.774;2023-04-25T10:16:45;93410.25;;;10.82;100.00
51829;BME280;37881;48.024;8.774;2023-04-25T10:19:32;93400.72;;;12.32;100.00
51829;BME280;37881;48.024;8.774;2023-04-25T10:22:29;93404.25;;;11.91;96.60
51829;BME280;37881;48.024;8.774;2023-04-25T10:25:18;93406.59;;;11.63;92.36
51829;BME280;37881;48.024;8.774;2023-04-25T10:28:04;93399.28;;;12.41;91.51
51829;BME280;37881;48.024;8.774;2023-04-25T10:31:19;93404.00;;;12.40;93.54
51829;BME280;37881;48.024;8.774;2023-04-25T10:34:05;93405.88;;;10.51;94.69
51829;BME280;37881;48.024;8.774;2023-04-25T10:36:52;93418.34;;;8.96;100.00
51829;BME280;37881;48.024;8.774;2023-04-25T10:39:40;93426.13;;;8.50;100.00
51829;BME280;37881;48.024;8.774;2023-04-25T10:42:28;93427.53;;;8.86;100.00
51829;BME280;37881;48.024;8.774;2023-04-25T10:45:15;93419.88;;;9.20;100.00
51829;BME280;37881;48.024;8.774;2023-04-25T10:48:02;93427.28;;;8.76;100.00
51829;BME280;37881;48.024;8.774;2023-04-25T10:50:49;93424.44;;;9.27;100.00
51829;BME280;37881;48.024;8.774;2023-04-25T10:53:36;93422.66;;;8.73;100.00
51829;BME280;37881;48.024;8.774;2023-04-25T10:59:19;93429.34;;;10.36;100.00
51829;BME280;37881;48.024;8.774;2023-04-25T11:02:11;93426.25;;;11.91;99.03
51829;BME280;37881;48.024;8.774;2023-04-25T11:05:00;93433.44;;;10.08;100.00
51829;BME280;37881;48.024;8.774;2023-04-25T11:10:52;93433.59;;;8.19;100.00
51829;BME280;37881;48.024;8.774;2023-04-25T11:13:39;93443.16;;;8.31;100.00
51829;BME280;37881;48.024;8.774;2023-04-25T11:16:26;93436.50;;;9.10;100.00
51829;BME280;37881;48.024;8.774;2023-04-25T11:19:14;93434.38;;;9.41;100.00
51829;BME280;37881;48.024;8.774;2023-04-25T11:22:03;93448.03;;;9.85;100.00
51829;BME280;37881;48.024;8.774;2023-04-25T11:24:50;93445.50;;;10.50;100.00
51829;BME280;37881;48.024;8.774;2023-04-25T11:27:53;93434.19;;;10.65;99.32
51829;BME280;37881;48.024;8.774;2023-04-25T11:30:48;93434.19;;;10.81;94.75
51829;BME280;37881;48.024;8.774;2023-04-25T11:33:36;93432.25;;;10.09;100.00
51829;BME280;37881;48.024;8.774;2023-04-25T11:36:24;93434.19;;;9.08;100.00
51829;BME280;37881;48.024;8.774;2023-04-25T11:39:11;93437.03;;;10.05;100.00
51829;BME280;37881;48.024;8.774;2023-04-25T11:41:58;93442.91;;;10.59;100.00
51829;BME280;37881;48.024;8.774;2023-04-25T11:44:52;93437.69;;;11.31;95.00
51829;BME280;37881;48.024;8.774;2023-04-25T11:47:41;93438.06;;;11.75;91.03
51829;BME280;37881;48.024;8.774;2023-04-25T11:50:28;93428.78;;;11.85;86.71
51829;BME280;37881;48.024;8.774;2023-04-25T11:53:17;93446.59;;;9.96;97.71
51829;BME280;37881;48.024;8.774;2023-04-25T11:56:09;93441.09;;;11.18;93.22
51829;BME280;37881;48.024;8.774;2023-04-25T11:58:58;93437.53;;;11.05;95.18
51829;BME280;37881;48.024;8.774;2023-04-25T12:01:58;93456.91;;;10.65;95.95
51829;BME280;37881;48.024;8.774;2023-04-25T12:04:46;93444.78;;;11.74;90.00
51829;BME280;37881;48.024;8.774;2023-04-25T12:07:34;93461.88;;;10.70;92.93
51829;BME280;37881;48.024;8.774;2023-04-25T12:10:21;93455.09;;;11.99;87.59
51829;BME280;37881;48.024;8.774;2023-04-25T12:13:24;93455.22;;;11.79;88.13
51829;BME280;37881;48.024;8.774;2023-04-25T12:16:12;93459.47;;;12.51;83.55
51829;BME280;37881;48.024;8.774;2023-04-25T12:18:59;93455.56;;;11.81;84.54
51829;BME280;37881;48.024;8.774;2023-04-25T12:21:47;93465.38;;;11.82;82.83
51829;BME280;37881;48.024;8.774;2023-04-25T12:24:37;93455.44;;;11.72;84.05
51829;BME280;37881;48.024;8.774;2023-04-25T12:27:25;93468.22;;;12.08;83.46
51829;BME280;37881;48.024;8.774;2023-04-25T12:30:15;93466.09;;;11.99;79.39
51829;BME280;37881;48.024;8.774;2023-04-25T12:33:02;93462.41;;;11.31;84.63
51829;BME280;37881;48.024;8.774;2023-04-25T12:35:49;93470.16;;;11.65;83.08
51829;BME280;37881;48.024;8.774;2023-04-25T12:38:38;93462.75;;;11.62;82.07
51829;BME280;37881;48.024;8.774;2023-04-25T12:41:25;93469.38;;;10.50;87.03
51829;BME280;37881;48.024;8.774;2023-04-25T12:44:12;93461.22;;;10.46;89.44
51829;BME280;37881;48.024;8.774;2023-04-25T12:46:59;93479.91;;;9.75;95.39
51829;BME280;37881;48.024;8.774;2023-04-25T12:49:47;93472.81;;;11.52;86.69
51829;BME280;37881;48.024;8.774;2023-04-25T12:52:33;93481.88;;;11.36;86.67
51829;BME280;37881;48.024;8.774;2023-04-25T12:55:20;93475.84;;;12.29;78.64
51829;BME280;37881;48.024;8.774;2023-04-25T12:58:07;93482.88;;;11.43;87.11
51829;BME280;37881;48.024;8.774;2023-04-25T13:00:54;93487.72;;;10.89;82.59
51829;BME280;37881;48.024;8.774;2023-04-25T13:03:41;93497.75;;;10.23;87.22
51829;BME280;37881;48.024;8.774;2023-04-25T13:06:28;93495.25;;;9.92;90.42
51829;BME280;37881;48.024;8.774;2023-04-25T13:09:17;93499.72;;;10.79;84.10
51829;BME280;37881;48.024;8.774;2023-04-25T13:12:04;93499.19;;;10.84;85.60
51829;BME280;37881;48.024;8.774;2023-04-25T13:14:51;93507.59;;;10.61;88.58
51829;BME280;37881;48.024;8.774;2023-04-25T13:17:38;93509.50;;;10.44;85.69
51829;BME280;37881;48.024;8.774;2023-04-25T13:20:25;93496.19;;;9.18;93.23
51829;BME280;37881;48.024;8.774;2023-04-25T13:23:12;93493.50;;;9.15;98.51
51829;BME280;37881;48.024;8.774;2023-04-25T13:25:59;93496.63;;;9.60;95.37
51829;BME280;37881;48.024;8.774;2023-04-25T13:28:47;93498.41;;;9.47;93.25
51829;BME280;37881;48.024;8.774;2023-04-25T13:31:34;93497.34;;;9.85;91.70
51829;BME280;37881;48.024;8.774;2023-04-25T13:34:21;93508.97;;;9.92;93.44
51829;BME280;37881;48.024;8.774;2023-04-25T13:37:08;93506.91;;;9.96;97.48
51829;BME280;37881;48.024;8.774;2023-04-25T13:39:55;93510.69;;;10.63;92.53
51829;BME280;37881;48.024;8.774;2023-04-25T13:42:42;93496.03;;;11.51;85.26
51829;BME280;37881;48.024;8.774;2023-04-25T13:45:32;93509.69;;;9.73;95.96
51829;BME280;37881;48.024;8.774;2023-04-25T13:48:19;93501.22;;;8.11;100.00
51829;BME280;37881;48.024;8.774;2023-04-25T13:51:06;93502.53;;;8.61;100.00
51829;BME280;37881;48.024;8.774;2023-04-25T13:53:53;93504.25;;;9.49;97.68
51829;BME280;37881;48.024;8.774;2023-04-25T13:56:41;93507.19;;;9.82;97.06
51829;BME280;37881;48.024;8.774;2023-04-25T13:59:29;93509.94;;;9.38;98.93
51829;BME280;37881;48.024;8.774;2023-04-25T14:02:15;93521.13;;;9.48;100.00
51829;BME280;37881;48.024;8.774;2023-04-25T14:05:04;93519.47;;;9.94;98.15
51829;BME280;37881;48.024;8.774;2023-04-25T14:07:51;93518.50;;;9.40;100.00
51829;BME280;37881;48.024;8.774;2023-04-25T14:10:38;93531.78;;;9.86;100.00
51829;BME280;37881;48.024;8.774;2023-04-25T14:13:25;93526.38;;;8.88;100.00
51829;BME280;37881;48.024;8.774;2023-04-25T14:16:12;93525.50;;;9.42;100.00
51829;BME280;37881;48.024;8.774;2023-04-25T14:18:59;93525.09;;;8.96;100.00
51829;BME280;37881;48.024;8.774;2023-04-25T14:21:47;93529.25;;;9.51;100.00
51829;BME280;37881;48.024;8.774;2023-04-25T14:24:33;93527.13;;;9.39;100.00
51829;BME280;37881;48.024;8.774;2023-04-25T14:27:21;93530.78;;;10.56;100.00
51829;BME280;37881;48.024;8.774;2023-04-25T14:30:08;93528.44;;;9.98;94.71
51829;BME280;37881;48.024;8.774;2023-04-25T14:33:02;93526.00;;;10.20;96.03
51829;BME280;37881;48.024;8.774;2023-04-25T14:35:49;93531.44;;;9.40;98.40
51829;BME280;37881;48.024;8.774;2023-04-25T14:38:36;93522.03;;;9.61;99.96
51829;BME280;37881;48.024;8.774;2023-04-25T14:41:23;93531.16;;;9.07;97.68
51829;BME280;37881;48.024;8.774;2023-04-25T14:44:10;93528.66;;;9.64;95.13
51829;BME280;37881;48.024;8.774;2023-04-25T14:46:57;93531.94;;;9.55;97.37
51829;BME280;37881;48.024;8.774;2023-04-25T14:49:44;93524.75;;;9.85;93.56
51829;BME280;37881;48.024;8.774;2023-04-25T14:52:37;93528.63;;;8.69;98.87
51829;BME280;37881;48.024;8.774;2023-04-25T14:55:24;93525.44;;;8.71;100.00